Aérodrome :
LOGIN :

S'inscrire | Disclaimer

   EN    FR    IT 

 










Légende :    VFR   VFR Marginal   IFR   IFR Intensif   IFR Très Intensif
Visi : 
Plafond : 
>= 8 km
>= 3000ft
5 à 8 km
1000 à 3000 ft
1500m à 5 km
500 à 1000 ft
800 à 1500m
200 à 500 ft
< 800m
< 200 ft
Symboles :   Orages  Brouillard  Fortes neiges  Fortes précipitations  Vent > 20 kt
SIGMETs :   Divers  Orages  Givrage  Turbulence  Onde Orograph.  Cendres Volcan.






- Altitude de l'aérodrome : 18 ft


LIPC - Cervia AFB Ravenna

DERNIER METAR :
  • 150955Z 29004KT 0500 R11/0800 FG SCT004 04/02 Q1015

METARs EXPIRÉS :
  • 150919Z 31004KT 0400 R11/0700 FG BKN005 04/02 Q1015 RMK BKN SCT200 VIS MIN 0400 WIND THR11 /////KT WIND THR29 32004KT RED
  • 150855Z 29005KT 1300 R11/P1500 BR SCT005 04/02 Q1014 RMK BKN SCT200 VIS MIN 1300 WIND THR11 /////KT WIND THR29 30005KT AMB
  • 150755Z 25004KT 0050 R11/0175 FG VV000 03/01 Q1013

TAF TAF LIPC
Valide du 15 à 09h jusqu'au 15 à 18h UTC


150800Z 1509/1518 26005KT 5000 BR
TEMPO 1508/1510 0300 FG BKN001



MET'MAP, la Météo Aéronautique d'un coup d'oeil ! - Copyright ORBIFLY Décembre 2007 - Disclaimer

ORBIFLY MET'MAP TEAM :

Programmation & Développement : Alexandra Zaïnal
Sur une idée originale de : Baudouin d'Aumeries
Assistance à la programmation : Marc-Olivier Méhu
Soutien technique & logistique : Manuel Goepfert

Contact : metmap@orbifly.com




SOURCES & CREDITS :

   NOAA